createdAt,value
2023-01-04T00:01:23.301Z,18.30
2023-01-04T00:03:55.248Z,17.48
2023-01-04T00:06:27.280Z,21.15
2023-01-04T00:08:59.247Z,18.83
2023-01-04T00:11:31.277Z,24.45
2023-01-04T00:14:03.379Z,27.27
2023-01-04T00:16:35.536Z,27.25
2023-01-04T00:19:07.547Z,23.75
2023-01-04T00:21:39.684Z,23.52
2023-01-04T00:24:11.758Z,24.00
2023-01-04T00:26:43.798Z,28.70
2023-01-04T00:29:15.824Z,24.23
2023-01-04T00:31:47.848Z,29.10
2023-01-04T00:34:20.131Z,23.77
2023-01-04T00:36:52.074Z,27.95
2023-01-04T00:39:24.103Z,26.02
2023-01-04T00:42:05.402Z,22.42
2023-01-04T00:44:37.505Z,28.80
2023-01-04T00:47:09.507Z,27.25
2023-01-04T00:49:41.425Z,30.90
2023-01-04T00:52:13.421Z,31.58
2023-01-04T00:54:45.379Z,25.35
2023-01-04T00:57:17.528Z,25.40
2023-01-04T00:59:49.447Z,24.25
2023-01-04T01:02:21.436Z,28.23
2023-01-04T01:04:53.517Z,23.60
2023-01-04T01:07:25.447Z,25.27
2023-01-04T01:09:57.391Z,23.25
2023-01-04T01:12:30.328Z,23.23
2023-01-04T01:15:02.523Z,26.85
2023-01-04T01:17:35.183Z,22.95
2023-01-04T01:20:07.647Z,20.17
2023-01-04T01:22:39.558Z,27.25
2023-01-04T01:25:11.460Z,25.73
2023-01-04T01:27:43.443Z,21.90
2023-01-04T01:30:15.393Z,26.70
2023-01-04T01:32:47.337Z,25.45
2023-01-04T01:35:19.334Z,23.40
2023-01-04T01:37:51.230Z,21.08
2023-01-04T01:40:23.183Z,28.65
2023-01-04T01:42:55.607Z,23.00
2023-01-04T01:45:34.677Z,25.38
2023-01-04T01:48:22.494Z,24.00
2023-01-04T01:50:59.524Z,25.55
2023-01-04T01:53:36.063Z,28.13
2023-01-04T01:56:11.094Z,27.33
2023-01-04T01:58:46.573Z,26.80
2023-01-04T02:01:19.012Z,29.90
2023-01-04T02:03:51.113Z,22.00
2023-01-04T02:06:29.894Z,23.65
2023-01-04T02:09:02.941Z,23.02
2023-01-04T02:11:34.918Z,28.17
2023-01-04T02:14:28.276Z,24.02
2023-01-04T02:17:12.168Z,27.42
2023-01-04T02:20:08.856Z,27.08
2023-01-04T02:23:04.967Z,33.40
2023-01-04T02:25:58.805Z,28.05
2023-01-04T02:28:36.688Z,28.02
2023-01-04T02:31:11.680Z,28.30
2023-01-04T02:34:02.341Z,25.90
2023-01-04T02:36:42.316Z,26.27
2023-01-04T02:39:23.115Z,27.80
2023-01-04T02:44:54.849Z,25.02
2023-01-04T02:47:53.439Z,23.25
2023-01-04T02:50:40.186Z,25.73
2023-01-04T02:53:22.871Z,25.92
2023-01-04T02:56:09.726Z,29.70
2023-01-04T02:59:18.707Z,31.23
2023-01-04T03:02:15.385Z,34.58
2023-01-04T03:05:15.072Z,31.13
2023-01-04T03:08:34.561Z,28.55
2023-01-04T03:11:30.904Z,28.08
2023-01-04T03:14:30.931Z,27.13
2023-01-04T03:17:10.306Z,28.80
2023-01-04T03:19:52.224Z,29.73
2023-01-04T03:22:56.221Z,32.35
2023-01-04T03:26:10.055Z,33.55
2023-01-04T03:29:01.789Z,33.58
2023-01-04T03:31:59.454Z,32.42
2023-01-04T03:34:50.046Z,29.67
2023-01-04T03:37:38.315Z,34.95
2023-01-04T03:40:39.575Z,32.20
2023-01-04T03:43:42.392Z,32.60
2023-01-04T03:46:52.959Z,30.35
2023-01-04T03:49:39.897Z,35.70
2023-01-04T03:52:14.549Z,39.45
2023-01-04T03:54:49.465Z,41.58
2023-01-04T03:57:23.463Z,37.42
2023-01-04T04:00:09.882Z,43.20
2023-01-04T04:02:42.007Z,39.75
2023-01-04T04:05:39.608Z,40.88
2023-01-04T04:08:29.559Z,41.33
2023-01-04T04:11:23.401Z,37.17
2023-01-04T04:13:55.341Z,40.83
2023-01-04T04:16:28.232Z,44.53
2023-01-04T04:19:06.395Z,38.42
2023-01-04T04:21:40.393Z,39.00
2023-01-04T04:24:18.638Z,42.80
2023-01-04T04:26:51.663Z,45.22
2023-01-04T04:29:24.666Z,48.63
2023-01-04T04:31:56.596Z,55.92
2023-01-04T04:34:28.614Z,53.88
2023-01-04T04:37:00.540Z,44.13
2023-01-04T04:39:32.806Z,49.00
2023-01-04T04:42:04.805Z,49.30
2023-01-04T04:44:36.754Z,52.30
2023-01-04T04:47:08.676Z,48.10
2023-01-04T04:49:40.535Z,40.97
2023-01-04T04:52:12.417Z,51.63
2023-01-04T04:54:44.261Z,43.03
2023-01-04T04:57:16.220Z,48.35
2023-01-04T04:59:48.157Z,38.97
2023-01-04T05:02:20.218Z,49.97
2023-01-04T05:04:52.318Z,46.97
2023-01-04T05:07:24.274Z,55.25
2023-01-04T05:09:56.217Z,53.30
2023-01-04T05:12:46.736Z,61.78
2023-01-04T05:15:18.992Z,50.05
2023-01-04T05:17:50.920Z,56.97
2023-01-04T05:20:22.946Z,57.65
2023-01-04T05:22:54.876Z,55.53
2023-01-04T05:25:27.046Z,51.78
2023-01-04T05:27:59.172Z,48.78
2023-01-04T05:30:49.729Z,60.28
2023-01-04T05:33:22.826Z,58.00
2023-01-04T05:35:56.353Z,52.75
2023-01-04T05:38:28.510Z,63.30
2023-01-04T05:41:00.436Z,60.88
2023-01-04T05:43:32.390Z,57.08
2023-01-04T05:46:04.434Z,60.50
2023-01-04T05:48:36.627Z,56.25
2023-01-04T05:51:08.463Z,52.80
2023-01-04T05:53:40.674Z,44.10
2023-01-04T05:56:12.612Z,51.35
2023-01-04T05:58:44.572Z,56.63
2023-01-04T06:01:16.677Z,57.83
2023-01-04T06:03:48.747Z,56.58
2023-01-04T06:06:20.954Z,56.00
2023-01-04T06:08:52.893Z,59.20
2023-01-04T06:11:27.781Z,43.63
2023-01-04T06:13:59.988Z,58.08
2023-01-04T06:16:31.974Z,57.55
2023-01-04T06:19:04.129Z,59.55
2023-01-04T06:21:35.999Z,48.33
2023-01-04T06:24:07.893Z,61.83
2023-01-04T06:26:39.802Z,55.80
2023-01-04T06:29:11.780Z,57.40
2023-01-04T06:31:43.941Z,62.25
2023-01-04T06:34:15.850Z,60.60
2023-01-04T06:36:47.904Z,62.90
2023-01-04T06:39:19.856Z,54.72
2023-01-04T06:41:51.772Z,58.67
2023-01-04T06:44:23.643Z,56.40
2023-01-04T06:46:55.505Z,56.28
2023-01-04T06:49:27.410Z,54.35
2023-01-04T06:51:59.283Z,64.25
2023-01-04T06:54:32.935Z,60.25
2023-01-04T06:57:04.930Z,57.03
2023-01-04T06:59:36.888Z,62.30
2023-01-04T07:02:10.595Z,59.97
2023-01-04T07:04:43.700Z,73.75
2023-01-04T07:07:15.728Z,77.95
2023-01-04T07:09:47.728Z,82.40
2023-01-04T07:12:19.697Z,93.30
2023-01-04T07:14:51.904Z,88.28
2023-01-04T07:17:29.751Z,81.88
2023-01-04T07:20:02.180Z,71.70
2023-01-04T07:22:34.092Z,71.90
2023-01-04T07:25:06.340Z,68.03
2023-01-04T07:27:38.304Z,60.20
2023-01-04T07:30:11.289Z,65.68
2023-01-04T07:32:43.144Z,57.80
2023-01-04T07:35:15.269Z,66.45
2023-01-04T07:37:50.891Z,58.53
2023-01-04T07:40:26.645Z,50.67
2023-01-04T07:42:59.870Z,56.88
2023-01-04T07:45:31.868Z,63.97
2023-01-04T07:48:03.976Z,55.13
2023-01-04T07:50:37.269Z,56.63
2023-01-04T07:53:09.206Z,58.10
2023-01-04T07:55:41.138Z,69.25
2023-01-04T07:58:13.043Z,72.75
2023-01-04T08:00:44.987Z,65.20
2023-01-04T08:03:16.984Z,55.17
2023-01-04T08:05:48.974Z,60.70
2023-01-04T08:08:20.824Z,53.85
2023-01-04T08:10:52.676Z,62.95
2023-01-04T08:13:24.617Z,55.15
2023-01-04T08:15:56.759Z,51.67
2023-01-04T08:18:28.914Z,55.33
2023-01-04T08:21:06.392Z,58.83
2023-01-04T08:23:38.517Z,51.85
2023-01-04T08:26:13.060Z,59.60
2023-01-04T08:28:45.327Z,64.43
2023-01-04T08:31:22.758Z,64.75
2023-01-04T08:33:55.460Z,55.60
2023-01-04T08:36:32.658Z,51.92
2023-01-04T08:39:06.893Z,54.35
2023-01-04T08:42:04.280Z,51.22
2023-01-04T08:47:11.660Z,53.72
2023-01-04T08:49:43.652Z,47.97
2023-01-04T08:52:16.281Z,53.60
2023-01-04T08:54:49.467Z,78.88
2023-01-04T08:57:21.392Z,67.28
2023-01-04T08:59:53.295Z,58.90
2023-01-04T09:02:28.037Z,46.75
2023-01-04T09:05:02.695Z,54.17
2023-01-04T09:07:34.762Z,46.25
2023-01-04T09:10:07.189Z,44.60
2023-01-04T09:12:39.144Z,46.30
2023-01-04T09:15:11.321Z,44.63
2023-01-04T09:18:05.227Z,50.58
2023-01-04T09:20:35.508Z,49.42
2023-01-04T09:23:07.437Z,44.10
2023-01-04T09:25:40.469Z,46.03
2023-01-04T09:28:12.564Z,44.38
2023-01-04T09:30:44.496Z,43.88
2023-01-04T09:33:16.450Z,45.10
2023-01-04T09:35:48.497Z,38.58
2023-01-04T09:38:20.485Z,40.10
2023-01-04T09:41:01.795Z,41.85
2023-01-04T09:43:52.101Z,43.33
2023-01-04T09:46:36.039Z,40.88
2023-01-04T09:49:24.860Z,48.72
2023-01-04T09:52:13.580Z,41.05
2023-01-04T09:55:38.173Z,38.10
2023-01-04T09:58:08.488Z,39.38
2023-01-04T10:00:45.323Z,35.05
2023-01-04T10:03:25.792Z,50.42
2023-01-04T10:05:59.379Z,76.00
2023-01-04T10:08:31.844Z,55.70
2023-01-04T10:11:28.431Z,39.97
2023-01-04T10:14:13.968Z,36.80
2023-01-04T10:22:52.965Z,35.67
2023-01-04T10:25:34.789Z,34.92
2023-01-04T10:28:39.835Z,38.85
2023-01-04T10:31:40.831Z,37.78
2023-01-04T10:34:21.431Z,39.38
2023-01-04T10:37:15.860Z,35.08
2023-01-04T10:39:52.759Z,31.75
2023-01-04T10:42:35.307Z,30.23
2023-01-04T10:45:22.627Z,36.15
2023-01-04T10:48:25.342Z,34.03
2023-01-04T10:51:00.997Z,31.63
2023-01-04T10:53:44.928Z,31.23
2023-01-04T10:56:36.961Z,33.95
2023-01-04T10:59:16.756Z,32.70
2023-01-04T11:02:18.765Z,41.85
2023-01-04T11:05:13.789Z,50.05
2023-01-04T11:07:54.361Z,40.55
2023-01-04T11:10:45.008Z,33.88
2023-01-04T11:13:17.243Z,33.53
2023-01-04T11:15:49.406Z,29.90
2023-01-04T11:18:21.696Z,32.17
2023-01-04T11:20:53.831Z,29.15
2023-01-04T11:23:26.047Z,28.85
2023-01-04T11:26:01.323Z,28.35
2023-01-04T11:28:48.798Z,29.70
2023-01-04T11:31:36.487Z,30.48
2023-01-04T11:34:08.390Z,32.70
2023-01-04T11:36:45.669Z,29.02
2023-01-04T11:39:23.686Z,32.65
2023-01-04T11:42:04.847Z,35.50
2023-01-04T11:44:36.967Z,33.67
2023-01-04T11:47:20.850Z,31.10
2023-01-04T11:49:53.261Z,29.92
2023-01-04T11:52:29.537Z,30.65
2023-01-04T11:55:17.301Z,30.77
2023-01-04T11:58:06.683Z,33.22
2023-01-04T12:00:49.793Z,29.88
2023-01-04T12:03:29.704Z,29.80
2023-01-04T12:06:01.687Z,32.63
2023-01-04T12:08:36.118Z,30.40
2023-01-04T12:11:25.636Z,31.23
2023-01-04T12:14:00.034Z,30.25
2023-01-04T12:16:38.754Z,28.77
2023-01-04T12:19:18.332Z,31.13
2023-01-04T12:21:53.834Z,28.65
2023-01-04T12:24:30.261Z,27.90
2023-01-04T12:27:02.581Z,33.42
2023-01-04T12:29:55.077Z,26.73
2023-01-04T12:32:27.004Z,28.25
2023-01-04T12:34:59.057Z,29.92
2023-01-04T12:37:46.324Z,27.38
2023-01-04T12:40:47.516Z,32.22
2023-01-04T12:43:27.050Z,37.55
2023-01-04T12:46:47.079Z,41.08
2023-01-04T12:49:28.171Z,31.40
2023-01-04T12:57:38.326Z,27.15
2023-01-04T13:00:14.209Z,20.55
2023-01-04T13:02:48.572Z,25.10
2023-01-04T13:05:55.514Z,28.42
2023-01-04T13:08:15.403Z,28.00
2023-01-04T13:10:51.874Z,25.90
2023-01-04T13:13:39.007Z,19.98
2023-01-04T13:16:28.375Z,30.02
2023-01-04T13:19:03.322Z,24.70
2023-01-04T13:21:42.699Z,28.38
2023-01-04T13:24:34.561Z,25.67
2023-01-04T13:27:08.767Z,27.08
2023-01-04T13:29:42.055Z,22.02
2023-01-04T13:32:22.062Z,23.27
2023-01-04T13:34:55.890Z,23.50
2023-01-04T13:37:33.577Z,22.27
2023-01-04T13:40:29.068Z,23.05
2023-01-04T13:43:16.172Z,23.30
2023-01-04T13:46:18.592Z,25.88
2023-01-04T13:48:54.130Z,35.42
2023-01-04T13:51:36.354Z,31.83
2023-01-04T13:54:22.789Z,31.33
2023-01-04T13:57:09.072Z,30.95
2023-01-04T13:59:41.031Z,32.33
2023-01-04T14:02:18.441Z,26.33
2023-01-04T14:04:51.588Z,29.25
2023-01-04T14:07:25.101Z,27.10
2023-01-04T14:10:00.373Z,25.65
2023-01-04T14:12:32.350Z,30.25
2023-01-04T14:15:25.283Z,30.23
2023-01-04T14:17:57.824Z,27.42
2023-01-04T14:20:33.095Z,28.65
2023-01-04T14:23:05.700Z,41.88
2023-01-04T14:25:49.400Z,35.17
2023-01-04T14:28:29.893Z,30.33
2023-01-04T14:31:02.704Z,39.67
2023-01-04T14:33:44.024Z,41.28
2023-01-04T14:36:23.215Z,32.00
2023-01-04T14:39:10.296Z,34.72
2023-01-04T14:41:55.134Z,25.75
2023-01-04T14:44:31.174Z,26.73
2023-01-04T14:47:07.616Z,27.92
2023-01-04T14:49:39.734Z,26.50
2023-01-04T14:52:20.482Z,33.47
2023-01-04T14:54:52.672Z,26.90
2023-01-04T14:57:24.685Z,31.05
2023-01-04T14:59:57.129Z,27.60
2023-01-04T15:02:30.752Z,23.38
2023-01-04T15:05:02.949Z,25.17
2023-01-04T15:07:38.479Z,27.58
2023-01-04T15:10:26.223Z,28.40
2023-01-04T15:13:00.928Z,29.13
2023-01-04T15:15:35.980Z,32.33
2023-01-04T15:18:08.745Z,30.48
2023-01-04T15:20:40.949Z,29.73
2023-01-04T15:23:14.237Z,32.10
2023-01-04T15:25:46.227Z,31.45
2023-01-04T15:28:21.875Z,32.38
2023-01-04T15:30:54.364Z,35.95
2023-01-04T15:33:32.408Z,31.50
2023-01-04T15:36:23.277Z,36.33
2023-01-04T15:38:55.951Z,34.88
2023-01-04T15:41:46.363Z,31.35
2023-01-04T15:44:18.359Z,35.45
2023-01-04T15:46:51.614Z,31.42
2023-01-04T15:49:23.842Z,29.23
2023-01-04T15:51:55.851Z,35.78
2023-01-04T15:54:28.918Z,56.53
2023-01-04T15:57:00.857Z,50.25
2023-01-04T15:59:32.832Z,50.65
2023-01-04T16:02:04.913Z,57.25
2023-01-04T16:04:38.035Z,57.63
2023-01-04T16:07:09.986Z,75.55
2023-01-04T16:09:42.003Z,57.78
2023-01-04T16:12:32.698Z,41.72
2023-01-04T16:15:05.065Z,41.00
2023-01-04T16:17:37.084Z,34.22
2023-01-04T16:20:10.081Z,32.83
2023-01-04T16:22:42.652Z,30.35
2023-01-04T16:25:17.393Z,26.58
2023-01-04T16:27:49.277Z,23.80
2023-01-04T16:30:27.791Z,27.88
2023-01-04T16:33:01.870Z,27.52
2023-01-04T16:35:33.821Z,26.85
2023-01-04T16:38:05.677Z,25.48
2023-01-04T16:40:37.672Z,30.25
2023-01-04T16:43:10.036Z,25.98
2023-01-04T16:45:41.967Z,22.90
2023-01-04T16:48:18.410Z,21.13
2023-01-04T16:50:50.771Z,19.17
2023-01-04T16:53:22.691Z,19.75
2023-01-04T16:55:54.652Z,15.75
2023-01-04T16:58:26.493Z,16.52
2023-01-04T17:01:07.169Z,16.42
2023-01-04T17:06:15.917Z,17.77
2023-01-04T17:08:50.340Z,15.65
2023-01-04T17:12:11.528Z,17.92
2023-01-04T17:14:19.902Z,18.85
2023-01-04T17:16:53.093Z,16.08
2023-01-04T17:19:25.269Z,17.20
2023-01-04T17:21:57.272Z,17.25
2023-01-04T17:24:29.245Z,20.63
2023-01-04T17:27:01.252Z,19.15
2023-01-04T17:29:33.285Z,16.85
2023-01-04T17:32:05.501Z,22.95
2023-01-04T17:34:37.487Z,19.67
2023-01-04T17:37:09.344Z,17.83
2023-01-04T17:39:41.176Z,19.75
2023-01-04T17:42:14.166Z,25.13
2023-01-04T17:44:49.623Z,21.90
2023-01-04T17:47:21.635Z,16.83
2023-01-04T17:49:53.496Z,19.48
2023-01-04T17:52:31.029Z,23.15
2023-01-04T17:55:04.203Z,24.05
2023-01-04T17:57:36.207Z,22.30
2023-01-04T18:00:08.939Z,17.70
2023-01-04T18:02:42.439Z,19.90
2023-01-04T18:05:14.561Z,20.08
2023-01-04T18:07:46.522Z,23.02
2023-01-04T18:10:33.041Z,19.15
2023-01-04T18:13:10.431Z,17.45
2023-01-04T18:15:54.979Z,18.48
2023-01-04T18:18:35.201Z,16.38
2023-01-04T18:21:28.516Z,15.88
2023-01-04T18:27:20.982Z,16.70
2023-01-04T18:29:47.187Z,16.63
2023-01-04T18:32:19.302Z,18.02
2023-01-04T18:34:51.334Z,15.98
2023-01-04T18:37:23.311Z,16.17
2023-01-04T18:39:55.243Z,20.40
2023-01-04T18:42:27.116Z,17.25
2023-01-04T18:44:59.156Z,15.23
2023-01-04T18:47:31.994Z,19.05
2023-01-04T18:50:04.011Z,16.48
2023-01-04T18:52:37.310Z,19.85
2023-01-04T18:55:10.806Z,19.52
2023-01-04T18:57:42.775Z,19.05
2023-01-04T19:00:14.896Z,19.55
2023-01-04T19:02:46.951Z,18.92
2023-01-04T19:05:19.672Z,19.48
2023-01-04T19:07:51.852Z,16.95
2023-01-04T19:10:23.821Z,15.45
2023-01-04T19:12:55.784Z,19.42
2023-01-04T19:15:27.710Z,20.63
2023-01-04T19:17:59.655Z,21.10
2023-01-04T19:20:31.681Z,21.33
2023-01-04T19:23:03.608Z,21.17
2023-01-04T19:25:38.208Z,19.45
2023-01-04T19:28:11.656Z,20.50
2023-01-04T19:30:43.886Z,26.13
2023-01-04T19:33:16.023Z,22.77
2023-01-04T19:35:48.024Z,20.45
2023-01-04T19:38:20.011Z,21.67
2023-01-04T19:40:59.889Z,23.48
2023-01-04T19:43:32.156Z,20.40
2023-01-04T19:46:09.115Z,23.83
2023-01-04T19:48:41.313Z,24.98
2023-01-04T19:51:17.546Z,26.00
2023-01-04T19:53:49.494Z,22.73
2023-01-04T19:56:21.496Z,24.75
2023-01-04T19:58:53.448Z,22.23
2023-01-04T20:01:25.619Z,24.60
2023-01-04T20:03:57.689Z,22.58
2023-01-04T20:06:29.953Z,20.77
2023-01-04T20:09:02.167Z,26.77
2023-01-04T20:11:34.158Z,25.05
2023-01-04T20:14:06.277Z,23.70
2023-01-04T20:16:38.254Z,21.85
2023-01-04T20:19:10.256Z,20.20
2023-01-04T20:21:42.260Z,23.08
2023-01-04T20:24:14.283Z,23.48
2023-01-04T20:26:46.932Z,21.27
2023-01-04T20:29:18.900Z,21.48
2023-01-04T20:31:50.948Z,21.42
2023-01-04T20:34:22.895Z,22.20
2023-01-04T20:36:54.859Z,20.45
2023-01-04T20:39:26.717Z,20.08
2023-01-04T20:42:17.155Z,18.08
2023-01-04T20:44:49.005Z,20.58
2023-01-04T20:47:21.189Z,20.00
2023-01-04T20:49:53.143Z,21.60
2023-01-04T20:52:25.052Z,23.92
2023-01-04T20:54:57.007Z,20.45
2023-01-04T20:57:28.954Z,22.55
2023-01-04T21:00:00.795Z,21.38
2023-01-04T21:02:37.891Z,21.77
2023-01-04T21:05:10.768Z,19.20
2023-01-04T21:07:42.664Z,19.65
2023-01-04T21:10:14.627Z,18.33
2023-01-04T21:12:47.244Z,21.73
2023-01-04T21:15:19.211Z,22.48
2023-01-04T21:17:51.285Z,20.52
2023-01-04T21:20:24.752Z,21.85
2023-01-04T21:22:56.741Z,26.13
2023-01-04T21:25:28.705Z,20.63
2023-01-04T21:28:02.686Z,22.23
2023-01-04T21:30:35.043Z,21.38
2023-01-04T21:33:07.387Z,19.45
2023-01-04T21:35:40.712Z,22.40
2023-01-04T21:38:12.948Z,18.85
2023-01-04T21:40:44.838Z,18.20
2023-01-04T21:43:18.087Z,20.92
2023-01-04T21:45:50.007Z,16.67
2023-01-04T21:48:21.956Z,18.25
2023-01-04T21:50:55.282Z,18.58
2023-01-04T21:53:29.978Z,19.80
2023-01-04T21:56:10.281Z,20.38
2023-01-04T21:58:43.134Z,17.75
2023-01-04T22:01:21.758Z,15.07
2023-01-04T22:03:54.083Z,17.02
2023-01-04T22:06:26.188Z,16.30
2023-01-04T22:08:58.990Z,15.30
2023-01-04T22:11:30.939Z,14.77
2023-01-04T22:14:03.554Z,19.88
2023-01-04T22:16:35.525Z,28.83
2023-01-04T22:19:07.490Z,26.85
2023-01-04T22:21:39.694Z,18.33
2023-01-04T22:24:12.977Z,15.52
2023-01-04T22:26:45.575Z,15.68
2023-01-04T22:29:17.734Z,15.10
2023-01-04T22:31:49.756Z,12.65
2023-01-04T22:34:22.001Z,15.50
2023-01-04T22:36:53.893Z,16.92
2023-01-04T22:39:26.067Z,16.10
2023-01-04T22:41:57.982Z,12.00
2023-01-04T22:44:29.912Z,11.55
2023-01-04T22:47:02.057Z,15.18
2023-01-04T22:49:34.059Z,19.92
2023-01-04T22:52:06.043Z,12.63
2023-01-04T22:54:38.023Z,17.40
2023-01-04T22:57:09.975Z,14.68
2023-01-04T22:59:41.949Z,11.43
2023-01-04T23:02:13.923Z,15.88
2023-01-04T23:04:45.842Z,22.52
2023-01-04T23:07:17.838Z,19.58
2023-01-04T23:09:49.749Z,16.67
2023-01-04T23:12:21.687Z,18.52
2023-01-04T23:14:53.645Z,13.80
2023-01-04T23:17:25.646Z,15.75
2023-01-04T23:19:57.918Z,15.23
2023-01-04T23:22:29.971Z,13.05
2023-01-04T23:25:02.114Z,10.93
2023-01-04T23:27:34.023Z,13.15
2023-01-04T23:30:06.459Z,13.15
2023-01-04T23:32:38.372Z,14.18
2023-01-04T23:35:10.543Z,13.05
2023-01-04T23:37:42.482Z,16.20
2023-01-04T23:40:14.988Z,16.65
2023-01-04T23:42:47.249Z,15.90
2023-01-04T23:45:19.457Z,15.82
2023-01-04T23:47:51.421Z,15.02
2023-01-04T23:50:23.426Z,16.38
2023-01-04T23:52:55.387Z,17.48
2023-01-04T23:55:27.482Z,15.48
2023-01-04T23:57:59.468Z,17.45
